KLRU/LRU METAR and TAF weather

Enter ICAO airport designator
Station Type Date Time Source
KLRU METAR 2020/08/14 03:15 UTC NOAA

KLRU 140315Z AUTO 05004KT 10SM CLR 31/07 A3007 RMK AO2 T03090065


Station Type Date Time Source
KLRU Decoded METAR 2020/08/14 03:15 UTC NOAA

Las Cruces, Las Cruces International Airport, NM, United States (KLRU) 32-17-22N 106-55-19W
Aug 13, 2020 - 11:15 PM EDT / 2020.08.14 0315 UTC
Wind: from the NE (050 degrees) at 5 MPH (4 KT):0
Visibility: 10 mile(s):0
Sky conditions: clear
Temperature: 87.6 F (30.9 C)
Dew Point: 43.7 F (6.5 C)
Relative Humidity: 21%
Pressure (altimeter): 30.07 in. Hg (1018 hPa)
ob: KLRU 140315Z AUTO 05004KT 10SM CLR 31/07 A3007 RMK AO2 T03090065
cycle: 3

Station Type Date Time Source
KLRU TAF 2020/08/13 22:15 UTC NOAA

TAF
AMD KLRU 132211Z 1322/1418 16005KT P6SM VCTS SCT120CB
TEMPO 1322/1401 VRB25G35KT 4SM TSRA BKN090CB
FM140100 18005KT P6SM BKN120
FM140600 05005KT P6SM SCT120

Example: see airport list